createdAt,value
2022-11-15T00:01:20.083Z,12.13
2022-11-15T00:03:47.856Z,12.97
2022-11-15T00:06:14.673Z,16.80
2022-11-15T00:08:41.418Z,16.63
2022-11-15T00:11:12.156Z,14.33
2022-11-15T00:13:39.084Z,13.67
2022-11-15T00:16:06.125Z,16.23
2022-11-15T00:18:33.075Z,16.43
2022-11-15T00:21:10.210Z,15.07
2022-11-15T00:23:37.282Z,15.33
2022-11-15T00:26:04.135Z,14.80
2022-11-15T00:28:31.627Z,15.00
2022-11-15T00:31:04.993Z,14.03
2022-11-15T00:33:34.795Z,14.43
2022-11-15T00:36:12.689Z,11.70
2022-11-15T00:38:40.873Z,12.87
2022-11-15T00:41:09.966Z,11.67
2022-11-15T00:43:38.665Z,14.30
2022-11-15T00:46:05.531Z,14.17
2022-11-15T00:48:33.882Z,11.93
2022-11-15T00:51:00.692Z,12.50
2022-11-15T00:53:27.769Z,16.83
2022-11-15T00:55:54.540Z,16.37
2022-11-15T00:58:21.628Z,16.07
2022-11-15T01:00:50.039Z,16.67
2022-11-15T01:03:16.912Z,13.90
2022-11-15T01:05:43.899Z,11.83
2022-11-15T01:08:17.738Z,15.93
2022-11-15T01:10:44.736Z,15.87
2022-11-15T01:13:11.493Z,14.50
2022-11-15T01:15:42.096Z,16.27
2022-11-15T01:18:09.361Z,18.00
2022-11-15T01:20:42.023Z,11.83
2022-11-15T01:23:08.899Z,12.10
2022-11-15T01:25:35.635Z,13.20
2022-11-15T01:28:02.686Z,11.90
2022-11-15T01:30:29.482Z,13.77
2022-11-15T01:32:56.230Z,11.33
2022-11-15T01:35:23.244Z,15.13
2022-11-15T01:37:50.011Z,11.83
2022-11-15T01:40:17.100Z,12.43
2022-11-15T01:42:43.902Z,11.57
2022-11-15T01:45:17.947Z,12.20
2022-11-15T01:47:49.988Z,10.80
2022-11-15T01:50:22.551Z,12.87
2022-11-15T01:52:51.864Z,11.67
2022-11-15T01:55:26.174Z,13.20
2022-11-15T01:57:59.167Z,13.07
2022-11-15T02:00:25.998Z,12.90
2022-11-15T02:02:52.767Z,14.07
2022-11-15T02:05:19.884Z,19.13
2022-11-15T02:07:49.157Z,12.67
2022-11-15T02:10:21.704Z,11.17
2022-11-15T02:12:49.444Z,12.10
2022-11-15T02:15:17.088Z,12.80
2022-11-15T02:18:08.950Z,17.43
2022-11-15T02:20:53.834Z,11.47
2022-11-15T02:23:50.478Z,11.53
2022-11-15T02:26:22.987Z,14.00
2022-11-15T02:29:07.702Z,11.50
2022-11-15T02:31:40.251Z,12.77
2022-11-15T02:34:29.315Z,13.00
2022-11-15T02:37:11.397Z,11.63
2022-11-15T02:40:29.322Z,15.40
2022-11-15T02:43:29.195Z,15.10
2022-11-15T02:46:15.750Z,15.30
2022-11-15T02:48:44.409Z,18.27
2022-11-15T02:51:12.373Z,9.77
2022-11-15T02:53:39.126Z,18.80
2022-11-15T02:56:08.675Z,15.00
2022-11-15T02:59:04.474Z,12.50
2022-11-15T03:01:52.724Z,37.93
2022-11-15T03:04:34.467Z,13.90
2022-11-15T03:07:17.059Z,22.40
2022-11-15T03:10:07.195Z,16.53
2022-11-15T03:12:49.950Z,19.03
2022-11-15T03:15:25.232Z,17.57
2022-11-15T03:18:08.008Z,12.80
2022-11-15T03:20:37.268Z,13.47
2022-11-15T03:23:11.267Z,12.33
2022-11-15T03:25:45.942Z,12.87
2022-11-15T03:28:20.431Z,12.03
2022-11-15T03:30:49.167Z,9.53
2022-11-15T03:33:16.964Z,11.90
2022-11-15T03:35:47.176Z,12.33
2022-11-15T03:38:26.932Z,13.13
2022-11-15T03:41:17.262Z,15.93
2022-11-15T03:43:56.211Z,14.43
2022-11-15T03:46:34.931Z,16.67
2022-11-15T03:49:21.793Z,15.63
2022-11-15T03:51:48.670Z,17.07
2022-11-15T03:54:15.475Z,13.53
2022-11-15T03:56:42.525Z,10.73
2022-11-15T03:59:09.305Z,12.10
2022-11-15T04:01:36.156Z,11.47
2022-11-15T04:04:04.533Z,15.23
2022-11-15T04:06:31.307Z,13.93
2022-11-15T04:08:58.028Z,17.40
2022-11-15T04:11:25.080Z,16.47
2022-11-15T04:13:51.829Z,22.77
2022-11-15T04:16:18.695Z,25.40
2022-11-15T04:18:45.697Z,15.97
2022-11-15T04:21:33.864Z,19.80
2022-11-15T04:24:06.549Z,19.90
2022-11-15T04:26:34.423Z,18.33
2022-11-15T04:29:19.790Z,19.70
2022-11-15T04:31:46.513Z,19.73
2022-11-15T04:34:13.270Z,18.93
2022-11-15T04:36:58.845Z,20.37
2022-11-15T04:39:25.603Z,19.83
2022-11-15T04:41:52.340Z,19.37
2022-11-15T04:44:19.015Z,24.47
2022-11-15T04:46:46.036Z,19.47
2022-11-15T04:49:12.775Z,23.43
2022-11-15T04:51:39.482Z,20.50
2022-11-15T04:54:06.506Z,19.70
2022-11-15T04:56:33.261Z,21.50
2022-11-15T04:59:00.002Z,16.60
2022-11-15T05:01:29.635Z,19.23
2022-11-15T05:04:20.116Z,21.90
2022-11-15T05:06:52.010Z,20.67
2022-11-15T05:09:23.114Z,18.53
2022-11-15T05:11:49.897Z,15.57
2022-11-15T05:14:19.309Z,15.17
2022-11-15T05:16:46.084Z,16.00
2022-11-15T05:19:12.833Z,16.77
2022-11-15T05:21:43.977Z,16.37
2022-11-15T05:24:13.735Z,17.67
2022-11-15T05:26:40.495Z,18.57
2022-11-15T05:29:07.704Z,16.50
2022-11-15T05:31:34.441Z,14.60
2022-11-15T05:34:07.149Z,15.10
2022-11-15T05:36:39.732Z,12.80
2022-11-15T05:39:09.300Z,12.93
2022-11-15T05:41:45.113Z,15.73
2022-11-15T05:44:15.094Z,16.40
2022-11-15T05:46:45.566Z,15.60
2022-11-15T05:49:16.871Z,15.23
2022-11-15T05:51:47.306Z,14.10
2022-11-15T05:54:22.467Z,14.03
2022-11-15T05:56:50.337Z,18.07
2022-11-15T05:59:17.766Z,15.50
2022-11-15T06:01:44.968Z,18.00
2022-11-15T06:04:11.962Z,16.97
2022-11-15T06:06:40.314Z,19.70
2022-11-15T06:09:07.420Z,19.87
2022-11-15T06:11:34.109Z,19.63
2022-11-15T06:14:00.836Z,21.27
2022-11-15T06:16:27.813Z,18.07
2022-11-15T06:18:54.618Z,15.70
2022-11-15T06:21:21.805Z,17.60
2022-11-15T06:23:49.903Z,15.97
2022-11-15T06:26:16.687Z,19.97
2022-11-15T06:28:43.370Z,15.93
2022-11-15T06:31:12.396Z,15.10
2022-11-15T06:33:40.224Z,17.57
2022-11-15T06:36:17.739Z,17.10
2022-11-15T06:38:46.232Z,18.10
2022-11-15T06:41:18.532Z,15.87
2022-11-15T06:43:45.359Z,14.87
2022-11-15T06:46:12.419Z,16.70
2022-11-15T06:48:39.355Z,17.50
2022-11-15T06:51:09.536Z,16.70
2022-11-15T06:53:37.010Z,15.40
2022-11-15T06:56:06.495Z,19.07
2022-11-15T06:58:33.300Z,20.73
2022-11-15T07:01:09.085Z,28.13
2022-11-15T07:03:40.051Z,16.43
2022-11-15T07:06:08.015Z,23.17
2022-11-15T07:08:35.792Z,20.80
2022-11-15T07:11:04.968Z,21.07
2022-11-15T07:13:39.677Z,31.20
2022-11-15T07:16:09.036Z,23.77
2022-11-15T07:18:37.498Z,28.13
2022-11-15T07:21:10.914Z,33.10
2022-11-15T07:23:39.806Z,17.23
2022-11-15T07:26:07.970Z,16.30
2022-11-15T07:28:35.837Z,17.13
2022-11-15T07:31:08.932Z,16.27
2022-11-15T07:33:36.564Z,16.07
2022-11-15T07:36:05.381Z,18.53
2022-11-15T07:38:35.729Z,15.87
2022-11-15T07:41:08.058Z,22.47
2022-11-15T07:43:35.779Z,17.80
2022-11-15T07:46:10.199Z,21.30
2022-11-15T07:48:44.541Z,19.83
2022-11-15T07:51:16.626Z,18.30
2022-11-15T07:53:44.593Z,17.10
2022-11-15T07:56:12.142Z,14.70
2022-11-15T07:58:40.192Z,13.27
2022-11-15T08:01:08.705Z,15.07
2022-11-15T08:03:35.774Z,12.43
2022-11-15T08:06:03.653Z,11.47
2022-11-15T08:08:30.370Z,12.70
2022-11-15T08:11:00.729Z,13.37
2022-11-15T08:13:27.884Z,14.60
2022-11-15T08:16:00.380Z,11.00
2022-11-15T08:18:27.115Z,11.43
2022-11-15T08:20:54.137Z,11.87
2022-11-15T08:23:20.808Z,11.30
2022-11-15T08:25:47.484Z,10.80
2022-11-15T08:28:14.477Z,12.53
2022-11-15T08:30:46.302Z,12.63
2022-11-15T08:33:15.031Z,11.67
2022-11-15T08:35:43.225Z,12.63
2022-11-15T08:38:09.919Z,12.67
2022-11-15T08:40:37.758Z,10.53
2022-11-15T08:43:05.056Z,12.23
2022-11-15T08:45:32.383Z,15.60
2022-11-15T08:48:02.769Z,12.70
2022-11-15T08:50:29.719Z,13.17
2022-11-15T08:52:56.361Z,18.17
2022-11-15T08:55:26.004Z,16.40
2022-11-15T08:57:52.974Z,21.60
2022-11-15T09:00:21.058Z,11.77
2022-11-15T09:02:48.664Z,15.83
2022-11-15T09:05:16.577Z,15.47
2022-11-15T09:07:43.576Z,11.73
2022-11-15T09:10:10.502Z,9.40
2022-11-15T09:12:37.391Z,9.77
2022-11-15T09:15:06.907Z,11.23
2022-11-15T09:17:33.553Z,11.60
2022-11-15T09:20:00.249Z,10.87
2022-11-15T09:22:27.375Z,12.23
2022-11-15T09:24:54.043Z,13.20
2022-11-15T09:27:20.737Z,13.20
2022-11-15T09:29:48.897Z,11.20
2022-11-15T09:32:15.537Z,11.53
2022-11-15T09:34:42.198Z,9.40
2022-11-15T09:37:08.919Z,8.57
2022-11-15T09:39:36.550Z,10.87
2022-11-15T09:42:27.068Z,9.33
2022-11-15T09:45:17.045Z,6.97
2022-11-15T09:48:21.573Z,11.27
2022-11-15T09:50:50.700Z,9.43
2022-11-15T09:54:37.946Z,10.13
2022-11-15T09:56:49.256Z,8.03
2022-11-15T09:59:23.499Z,8.73
2022-11-15T10:02:11.762Z,12.50
2022-11-15T10:04:40.720Z,7.47
2022-11-15T10:07:46.124Z,7.13
2022-11-15T10:10:31.765Z,8.07
2022-11-15T10:12:59.878Z,7.00
2022-11-15T10:15:27.216Z,10.73
2022-11-15T10:18:30.123Z,10.47
2022-11-15T10:21:01.003Z,7.33
2022-11-15T10:23:29.495Z,10.30
2022-11-15T10:26:03.688Z,9.43
2022-11-15T10:28:33.841Z,7.20
2022-11-15T10:31:05.634Z,8.20
2022-11-15T10:33:35.039Z,7.90
2022-11-15T10:36:13.694Z,11.80
2022-11-15T10:38:49.817Z,9.20
2022-11-15T10:41:17.711Z,8.30
2022-11-15T10:43:47.068Z,8.47
2022-11-15T10:46:45.754Z,10.03
2022-11-15T10:49:20.667Z,8.20
2022-11-15T10:51:55.277Z,6.87
2022-11-15T10:54:44.342Z,8.37
2022-11-15T10:57:38.949Z,5.60
2022-11-15T11:00:31.135Z,5.80
2022-11-15T11:02:58.126Z,7.93
2022-11-15T11:05:41.361Z,6.57
2022-11-15T11:08:12.063Z,8.77
2022-11-15T11:11:00.202Z,7.13
2022-11-15T11:13:30.833Z,5.43
2022-11-15T11:16:15.669Z,5.50
2022-11-15T11:18:57.359Z,8.47
2022-11-15T11:21:47.052Z,4.77
2022-11-15T11:24:46.642Z,6.33
2022-11-15T11:27:35.139Z,5.50
2022-11-15T11:30:11.431Z,5.77
2022-11-15T11:33:05.580Z,4.10
2022-11-15T11:36:04.504Z,4.40
2022-11-15T11:38:45.077Z,6.80
2022-11-15T11:41:31.072Z,5.77
2022-11-15T11:44:07.226Z,4.93
2022-11-15T11:46:57.792Z,4.47
2022-11-15T11:49:33.783Z,4.77
2022-11-15T11:52:11.132Z,4.50
2022-11-15T11:54:57.727Z,5.30
2022-11-15T11:58:09.341Z,4.07
2022-11-15T12:00:42.728Z,6.13
2022-11-15T12:03:37.109Z,4.03
2022-11-15T12:06:20.524Z,5.00
2022-11-15T12:08:54.881Z,3.40
2022-11-15T12:11:57.833Z,4.07
2022-11-15T12:14:24.763Z,7.43
2022-11-15T12:16:52.188Z,3.70
2022-11-15T12:19:18.869Z,4.93
2022-11-15T12:22:11.996Z,5.37
2022-11-15T12:24:42.054Z,5.10
2022-11-15T12:27:26.583Z,4.83
2022-11-15T12:30:04.552Z,7.40
2022-11-15T12:32:40.058Z,4.57
2022-11-15T12:35:27.497Z,14.20
2022-11-15T12:38:00.839Z,8.27
2022-11-15T12:40:31.906Z,19.30
2022-11-15T12:43:03.715Z,8.10
2022-11-15T12:45:39.484Z,4.30
2022-11-15T12:48:37.670Z,4.13
2022-11-15T12:51:05.227Z,7.80
2022-11-15T12:53:36.094Z,4.37
2022-11-15T12:56:18.077Z,4.90
2022-11-15T12:58:55.373Z,4.90
2022-11-15T13:01:36.446Z,3.90
2022-11-15T13:04:25.712Z,3.73
2022-11-15T13:06:58.951Z,5.50
2022-11-15T13:09:34.910Z,5.60
2022-11-15T13:12:04.589Z,3.23
2022-11-15T13:14:51.108Z,5.13
2022-11-15T13:17:21.097Z,8.23
2022-11-15T13:19:53.417Z,5.20
2022-11-15T13:22:38.511Z,4.43
2022-11-15T13:25:17.585Z,3.87
2022-11-15T13:27:46.116Z,10.67
2022-11-15T13:30:32.350Z,5.60
2022-11-15T13:33:09.543Z,7.80
2022-11-15T13:35:41.004Z,4.73
2022-11-15T13:38:08.033Z,8.50
2022-11-15T13:40:39.017Z,4.53
2022-11-15T13:43:24.109Z,3.83
2022-11-15T13:46:15.197Z,4.07
2022-11-15T13:48:43.855Z,2.50
2022-11-15T13:51:31.015Z,3.87
2022-11-15T13:54:04.100Z,3.33
2022-11-15T13:56:33.425Z,5.30
2022-11-15T13:59:00.431Z,3.20
2022-11-15T14:01:32.142Z,3.80
2022-11-15T14:04:01.572Z,3.83
2022-11-15T14:06:30.649Z,4.30
2022-11-15T14:09:17.335Z,3.70
2022-11-15T14:11:51.926Z,5.43
2022-11-15T14:14:24.513Z,6.53
2022-11-15T14:17:00.300Z,7.27
2022-11-15T14:19:27.360Z,4.30
2022-11-15T14:22:16.032Z,4.27
2022-11-15T14:24:46.980Z,6.00
2022-11-15T14:27:26.854Z,9.70
2022-11-15T14:29:54.786Z,9.77
2022-11-15T14:32:45.559Z,10.90
2022-11-15T14:35:19.212Z,12.53
2022-11-15T14:37:46.625Z,9.90
2022-11-15T14:40:22.799Z,5.53
2022-11-15T14:42:50.944Z,7.03
2022-11-15T14:45:20.891Z,13.67
2022-11-15T14:47:48.298Z,59.97
2022-11-15T14:50:17.823Z,26.20
2022-11-15T14:52:45.399Z,21.67
2022-11-15T14:55:30.827Z,8.07
2022-11-15T14:58:00.771Z,49.20
2022-11-15T15:00:32.363Z,27.27
2022-11-15T15:03:02.977Z,12.83
2022-11-15T15:05:34.616Z,9.57
2022-11-15T15:08:03.140Z,18.90
2022-11-15T15:10:42.245Z,53.00
2022-11-15T15:13:30.383Z,12.73
2022-11-15T15:15:57.108Z,10.40
2022-11-15T15:18:23.849Z,8.37
2022-11-15T15:20:58.607Z,7.90
2022-11-15T15:23:30.507Z,13.63
2022-11-15T15:25:57.888Z,15.90
2022-11-15T15:28:26.628Z,6.53
2022-11-15T15:30:55.450Z,7.97
2022-11-15T15:33:22.443Z,8.33
2022-11-15T15:35:52.252Z,9.10
2022-11-15T15:38:19.027Z,50.27
2022-11-15T15:40:45.982Z,40.90
2022-11-15T15:43:14.245Z,27.43
2022-11-15T15:45:42.993Z,38.40
2022-11-15T15:48:15.410Z,35.10
2022-11-15T15:50:46.385Z,19.03
2022-11-15T15:53:13.954Z,30.90
2022-11-15T15:55:40.689Z,50.53
2022-11-15T15:58:09.408Z,48.63
2022-11-15T16:00:37.812Z,42.90
2022-11-15T16:03:05.596Z,44.33
2022-11-15T16:05:32.385Z,38.03
2022-11-15T16:07:59.467Z,34.30
2022-11-15T16:10:29.131Z,40.70
2022-11-15T16:12:57.167Z,56.10
2022-11-15T16:15:26.269Z,40.27
2022-11-15T16:18:16.937Z,18.50
2022-11-15T16:20:51.218Z,19.40
2022-11-15T16:23:21.220Z,20.27
2022-11-15T16:25:49.097Z,18.73
2022-11-15T16:28:29.309Z,15.10
2022-11-15T16:31:03.355Z,16.20
2022-11-15T16:33:33.040Z,24.73
2022-11-15T16:36:00.100Z,19.33
2022-11-15T16:38:27.421Z,22.23
2022-11-15T16:40:54.195Z,16.83
2022-11-15T16:43:23.076Z,11.87
2022-11-15T16:45:51.900Z,14.07
2022-11-15T16:48:28.202Z,23.90
2022-11-15T16:50:59.567Z,12.87
2022-11-15T16:53:28.095Z,25.43
2022-11-15T16:55:56.307Z,15.70
2022-11-15T16:58:23.078Z,14.37
2022-11-15T17:00:53.955Z,13.00
2022-11-15T17:03:21.950Z,11.37
2022-11-15T17:05:51.926Z,16.33
2022-11-15T17:08:20.806Z,16.27
2022-11-15T17:10:47.696Z,25.03
2022-11-15T17:13:14.871Z,24.07
2022-11-15T17:15:41.644Z,28.87
2022-11-15T17:18:12.697Z,33.33
2022-11-15T17:20:41.899Z,84.60
2022-11-15T17:23:14.830Z,156.97
2022-11-15T17:25:42.110Z,51.83
2022-11-15T17:28:10.212Z,57.50
2022-11-15T17:30:36.921Z,93.43
2022-11-15T17:33:05.290Z,23.70
2022-11-15T17:35:31.994Z,36.80
2022-11-15T17:38:00.872Z,139.63
2022-11-15T17:40:27.612Z,148.10
2022-11-15T17:42:57.322Z,119.07
2022-11-15T17:45:23.981Z,121.90
2022-11-15T17:47:50.909Z,124.70
2022-11-15T17:50:17.945Z,118.53
2022-11-15T17:52:44.612Z,108.20
2022-11-15T17:55:11.606Z,102.50
2022-11-15T17:57:38.246Z,88.23
2022-11-15T18:00:06.291Z,65.20
2022-11-15T18:02:33.250Z,96.77
2022-11-15T18:04:59.934Z,108.07
2022-11-15T18:07:26.703Z,127.97
2022-11-15T18:09:53.992Z,112.27
2022-11-15T18:12:20.804Z,101.20
2022-11-15T18:14:47.555Z,70.37
2022-11-15T18:17:14.249Z,35.77
2022-11-15T18:19:40.902Z,24.10
2022-11-15T18:22:09.887Z,23.47
2022-11-15T18:24:38.916Z,36.40
2022-11-15T18:27:06.448Z,24.23
2022-11-15T18:29:34.669Z,19.77
2022-11-15T18:32:05.582Z,26.20
2022-11-15T18:34:34.381Z,34.67
2022-11-15T18:37:03.086Z,44.07
2022-11-15T18:39:30.047Z,48.60
2022-11-15T18:41:57.312Z,30.40
2022-11-15T18:44:23.971Z,19.70
2022-11-15T18:46:51.095Z,19.73
2022-11-15T18:49:19.914Z,17.30
2022-11-15T18:51:55.015Z,20.80
2022-11-15T18:54:26.745Z,28.93
2022-11-15T18:56:56.406Z,28.40
2022-11-15T18:59:23.319Z,28.73
2022-11-15T19:01:52.455Z,29.33
2022-11-15T19:04:21.043Z,33.53
2022-11-15T19:06:50.545Z,21.73
2022-11-15T19:09:19.033Z,25.10
2022-11-15T19:11:47.663Z,24.00
2022-11-15T19:14:16.457Z,25.10
2022-11-15T19:16:45.719Z,25.67
2022-11-15T19:19:15.078Z,26.73
2022-11-15T19:21:42.471Z,26.60
2022-11-15T19:24:10.731Z,28.53
2022-11-15T19:26:37.943Z,23.97
2022-11-15T19:29:06.615Z,25.17
2022-11-15T19:31:34.352Z,63.53
2022-11-15T19:34:04.968Z,46.87
2022-11-15T19:36:34.262Z,60.73
2022-11-15T19:39:08.418Z,46.50
2022-11-15T19:41:39.312Z,38.00
2022-11-15T19:44:07.168Z,26.80
2022-11-15T19:46:34.956Z,24.07
2022-11-15T19:49:02.347Z,20.43
2022-11-15T19:51:31.323Z,20.93
2022-11-15T19:54:06.869Z,19.17
2022-11-15T19:56:35.142Z,17.43
2022-11-15T19:59:03.277Z,19.03
2022-11-15T20:01:32.442Z,18.33
2022-11-15T20:04:00.378Z,19.67
2022-11-15T20:06:30.923Z,19.70
2022-11-15T20:08:58.534Z,19.13
2022-11-15T20:11:26.653Z,19.23
2022-11-15T20:13:58.750Z,19.20
2022-11-15T20:16:29.045Z,34.50
2022-11-15T20:18:56.098Z,29.17
2022-11-15T20:21:23.062Z,28.20
2022-11-15T20:23:51.626Z,33.13
2022-11-15T20:26:19.792Z,28.53
2022-11-15T20:28:48.167Z,25.47
2022-11-15T20:31:15.529Z,20.90
2022-11-15T20:33:42.521Z,18.93
2022-11-15T20:36:15.867Z,30.17
2022-11-15T20:38:45.817Z,19.97
2022-11-15T20:41:13.748Z,14.80
2022-11-15T20:43:43.701Z,24.70
2022-11-15T20:46:12.324Z,20.40
2022-11-15T20:48:39.629Z,22.50
2022-11-15T20:51:15.209Z,21.27
2022-11-15T20:53:45.533Z,22.40
2022-11-15T20:56:16.025Z,20.13
2022-11-15T20:58:44.947Z,24.53
2022-11-15T21:01:14.788Z,26.37
2022-11-15T21:03:42.072Z,26.40
2022-11-15T21:06:09.361Z,24.47
2022-11-15T21:08:54.662Z,22.67
2022-11-15T21:11:39.912Z,20.47
2022-11-15T21:14:09.444Z,14.80
2022-11-15T21:16:37.805Z,16.33
2022-11-15T21:19:09.617Z,15.53
2022-11-15T21:21:37.186Z,19.27
2022-11-15T21:24:06.341Z,19.00
2022-11-15T21:26:33.579Z,16.30
2022-11-15T21:29:02.772Z,20.90
2022-11-15T21:31:32.715Z,23.77
2022-11-15T21:34:02.844Z,18.23
2022-11-15T21:36:30.158Z,19.30
2022-11-15T21:38:56.892Z,20.87
2022-11-15T21:41:23.890Z,17.23
2022-11-15T21:43:50.774Z,20.17
2022-11-15T21:46:17.862Z,21.43
2022-11-15T21:48:44.589Z,17.50
2022-11-15T21:51:12.044Z,18.30
2022-11-15T21:53:38.783Z,17.67
2022-11-15T21:56:06.982Z,16.87
2022-11-15T21:58:34.320Z,19.53
2022-11-15T22:01:21.490Z,15.83
2022-11-15T22:03:48.659Z,17.33
2022-11-15T22:06:18.888Z,18.90
2022-11-15T22:08:46.310Z,16.17
2022-11-15T22:11:14.569Z,16.70
2022-11-15T22:13:41.520Z,16.33
2022-11-15T22:16:09.644Z,15.73
2022-11-15T22:18:37.455Z,19.93
2022-11-15T22:21:11.033Z,13.87
2022-11-15T22:23:38.109Z,17.13
2022-11-15T22:26:06.331Z,15.93
2022-11-15T22:28:33.772Z,15.93
2022-11-15T22:31:01.043Z,13.00
2022-11-15T22:33:32.302Z,15.93
2022-11-15T22:35:59.866Z,17.07
2022-11-15T22:38:27.461Z,15.13
2022-11-15T22:40:54.635Z,15.83
2022-11-15T22:43:23.278Z,15.03
2022-11-15T22:45:56.635Z,16.40
2022-11-15T22:48:27.180Z,13.70
2022-11-15T22:50:55.042Z,17.43
2022-11-15T22:53:21.974Z,16.23
2022-11-15T22:55:57.169Z,15.30
2022-11-15T22:58:29.921Z,16.47
2022-11-15T23:01:01.435Z,12.80
2022-11-15T23:03:29.606Z,14.73
2022-11-15T23:06:03.803Z,16.20
2022-11-15T23:08:31.054Z,19.10
2022-11-15T23:11:22.216Z,16.97
2022-11-15T23:13:53.475Z,19.97
2022-11-15T23:16:44.671Z,19.93
2022-11-15T23:19:13.389Z,20.17
2022-11-15T23:22:04.559Z,20.73
2022-11-15T23:24:32.984Z,18.13
2022-11-15T23:27:03.238Z,15.60
2022-11-15T23:29:30.981Z,17.27
2022-11-15T23:32:16.245Z,15.13
2022-11-15T23:34:45.112Z,12.17
2022-11-15T23:37:17.278Z,15.47
2022-11-15T23:39:44.319Z,15.37
2022-11-15T23:42:20.246Z,16.70
2022-11-15T23:44:51.125Z,17.27
2022-11-15T23:47:20.284Z,17.67
2022-11-15T23:49:47.359Z,16.20
2022-11-15T23:52:17.810Z,14.50
2022-11-15T23:54:44.626Z,13.80
2022-11-15T23:57:13.051Z,13.33
2022-11-15T23:59:43.903Z,16.17
